Time;durP1;ratioP1;P1;durP2;ratioP2;P2;SDS_P1;SDS_P2;PMS_P1;PMS_P2;Temp;Humidity;BMP_temperature;BMP_pressure;BME280_temperature;BME280_humidity;BME280_pressure;Samples;Min_cycle;Max_cycle;Signal;HPM_P1;HPM_P2
2021/11/06 00:00:00;;;;;;;15.45;9.60;;;11.50;63.50;;;;;;5115253;28;20027;-74
2021/11/06 00:02:26;;;;;;;10.30;6.85;;;11.50;62.90;;;;;;5115803;28;20060;-73
2021/11/06 00:04:52;;;;;;;6.57;3.90;;;11.50;63.40;;;;;;5114495;28;20024;-73
2021/11/06 00:07:18;;;;;;;9.52;4.22;;;11.40;63.50;;;;;;5114629;28;20024;-72
2021/11/06 00:09:43;;;;;;;7.75;3.40;;;11.50;63.50;;;;;;5114228;28;20028;-73
2021/11/06 00:12:09;;;;;;;3.92;2.47;;;11.40;63.40;;;;;;5115329;28;20026;-72
2021/11/06 00:14:36;;;;;;;6.50;3.50;;;11.40;63.50;;;;;;5115407;28;20023;-74
2021/11/06 00:17:02;;;;;;;5.32;3.20;;;11.40;63.60;;;;;;5115060;28;20030;-73
2021/11/06 00:19:28;;;;;;;5.90;2.70;;;11.40;63.20;;;;;;5113674;28;20056;-74
2021/11/06 00:21:54;;;;;;;2.75;1.58;;;11.30;63.40;;;;;;5113547;28;20058;-72
2021/11/06 00:24:20;;;;;;;9.77;2.25;;;11.20;63.10;;;;;;5115177;28;20475;-73
2021/11/06 00:26:49;;;;;;;5.00;2.00;;;11.10;63.80;;;;;;5115340;28;20101;-73
2021/11/06 00:29:19;;;;;;;4.30;2.13;;;11.20;64.50;;;;;;5113834;28;20542;-73
2021/11/06 00:31:46;;;;;;;4.57;1.63;;;11.10;64.50;;;;;;5114112;28;20112;-73
2021/11/06 00:34:12;;;;;;;4.93;1.80;;;11.10;64.30;;;;;;5114834;28;20023;-73
2021/11/06 00:36:38;;;;;;;2.45;1.50;;;11.10;64.50;;;;;;5113187;28;20106;-73
2021/11/06 00:39:05;;;;;;;4.80;1.50;;;11.10;64.30;;;;;;5113823;28;20112;-73
2021/11/06 00:41:31;;;;;;;4.45;1.52;;;11.00;63.60;;;;;;5114007;28;20437;-73
2021/11/06 00:43:57;;;;;;;4.80;1.67;;;11.00;64.50;;;;;;5114970;28;20027;-72
2021/11/06 00:46:23;;;;;;;3.15;1.60;;;11.00;64.50;;;;;;5114555;28;20383;-74
2021/11/06 00:48:48;;;;;;;3.00;1.50;;;11.00;64.50;;;;;;5113695;28;20039;-73
2021/11/06 00:51:14;;;;;;;2.10;1.25;;;11.00;64.10;;;;;;5112881;28;20028;-73
2021/11/06 00:53:40;;;;;;;1.73;1.10;;;10.90;64.60;;;;;;5115144;28;20055;-73
2021/11/06 00:56:06;;;;;;;1.85;1.30;;;10.90;65.20;;;;;;5112281;28;20024;-73
2021/11/06 00:58:31;;;;;;;3.22;1.50;;;10.90;65.20;;;;;;5114057;28;20027;-73
2021/11/06 01:00:57;;;;;;;2.60;1.50;;;10.90;64.80;;;;;;5113189;28;20031;-73
2021/11/06 01:03:23;;;;;;;2.22;1.52;;;10.80;65.00;;;;;;5113157;28;20038;-73
2021/11/06 01:05:49;;;;;;;2.45;1.25;;;10.80;65.20;;;;;;5113367;28;20333;-73
2021/11/06 01:08:14;;;;;;;2.75;1.30;;;10.80;65.30;;;;;;5114047;28;20032;-74
2021/11/06 01:10:40;;;;;;;2.53;1.40;;;10.70;64.90;;;;;;5113292;28;20019;-73
2021/11/06 01:13:06;;;;;;;5.07;1.90;;;10.70;65.60;;;;;;5113255;28;20024;-73
2021/11/06 01:15:32;;;;;;;1.45;1.10;;;10.60;64.90;;;;;;5111178;28;20102;-73
2021/11/06 01:17:58;;;;;;;1.90;1.15;;;10.60;65.50;;;;;;5113327;28;20035;-73
2021/11/06 01:20:23;;;;;;;2.35;1.38;;;10.60;65.60;;;;;;5113786;28;20026;-73
2021/11/06 01:22:49;;;;;;;2.95;1.35;;;10.60;65.00;;;;;;5114111;28;20023;-73
2021/11/06 01:25:15;;;;;;;7.03;1.10;;;10.60;65.30;;;;;;5112608;28;20376;-73
2021/11/06 01:27:42;;;;;;;3.88;1.20;;;10.60;65.40;;;;;;5113834;28;20031;-71
2021/11/06 01:30:08;;;;;;;2.92;0.90;;;10.60;64.50;;;;;;5112783;28;20440;-73
2021/11/06 01:32:34;;;;;;;3.22;1.00;;;10.70;64.40;;;;;;5114012;27;20424;-73
2021/11/06 01:35:01;;;;;;;2.80;1.10;;;10.70;63.90;;;;;;5113647;28;20053;-73
2021/11/06 01:37:27;;;;;;;1.08;0.80;;;10.70;63.50;;;;;;5114044;28;20084;-72
2021/11/06 01:39:54;;;;;;;1.95;1.02;;;10.70;62.90;;;;;;5112791;28;20019;-73
2021/11/06 01:42:20;;;;;;;2.60;0.77;;;10.80;62.70;;;;;;5113554;28;20062;-72
2021/11/06 01:44:46;;;;;;;3.17;0.80;;;10.80;62.80;;;;;;5112688;28;20016;-73
2021/11/06 01:47:12;;;;;;;1.55;0.82;;;10.80;63.10;;;;;;5112239;28;20027;-74
2021/11/06 01:49:38;;;;;;;4.57;0.90;;;10.90;62.30;;;;;;5111711;28;20421;-73
2021/11/06 01:52:05;;;;;;;1.17;0.75;;;10.80;62.20;;;;;;5112321;28;20047;-73
2021/11/06 01:54:31;;;;;;;2.08;0.73;;;10.90;62.60;;;;;;5113621;28;20023;-73
2021/11/06 01:56:56;;;;;;;1.85;0.88;;;10.90;62.80;;;;;;5111162;28;20042;-73
2021/11/06 01:59:23;;;;;;;1.40;0.90;;;10.80;62.90;;;;;;5110491;28;20353;-74
2021/11/06 02:01:49;;;;;;;1.40;0.90;;;10.80;62.50;;;;;;5109238;28;20036;-73
2021/11/06 02:04:15;;;;;;;2.25;0.90;;;10.80;63.60;;;;;;5109527;28;20031;-73
2021/11/06 02:06:41;;;;;;;1.20;1.00;;;10.80;63.10;;;;;;5111664;28;20392;-72
2021/11/06 02:09:06;;;;;;;1.30;0.90;;;10.80;63.40;;;;;;5112929;28;20165;-73
2021/11/06 02:11:34;;;;;;;4.05;1.10;;;10.80;63.60;;;;;;5112089;28;20052;-72
2021/11/06 02:14:00;;;;;;;3.05;1.10;;;10.80;63.50;;;;;;5113024;28;20024;-74
2021/11/06 02:16:26;;;;;;;2.65;1.10;;;10.70;63.60;;;;;;5112715;28;20536;-73
2021/11/06 02:18:53;;;;;;;6.75;1.10;;;10.60;63.10;;;;;;5112397;28;20046;-73
2021/11/06 02:21:20;;;;;;;2.30;1.10;;;10.60;63.30;;;;;;5112392;28;20084;-74
2021/11/06 02:23:48;;;;;;;1.88;0.88;;;10.50;63.40;;;;;;5112819;28;20011;-73
2021/11/06 02:26:16;;;;;;;2.38;1.20;;;10.50;64.00;;;;;;5112975;28;20156;-74
2021/11/06 02:28:48;;;;;;;4.13;1.02;;;10.50;63.80;;;;;;5111786;28;20031;-72
2021/11/06 02:31:14;;;;;;;2.83;1.00;;;10.50;63.90;;;;;;5111259;28;20048;-72
2021/11/06 02:33:40;;;;;;;2.20;0.95;;;10.50;63.70;;;;;;5112899;28;20094;-74
2021/11/06 02:36:06;;;;;;;3.00;1.10;;;10.40;63.50;;;;;;5112047;28;20065;-72
2021/11/06 02:38:31;;;;;;;1.42;0.93;;;10.50;63.80;;;;;;5111359;28;20020;-74
2021/11/06 02:40:57;;;;;;;2.63;0.80;;;10.50;64.20;;;;;;5110726;28;20027;-74
2021/11/06 02:43:23;;;;;;;3.42;1.23;;;10.50;64.00;;;;;;5112271;28;20142;-74
2021/11/06 02:45:49;;;;;;;3.10;1.17;;;10.40;64.40;;;;;;5111578;28;20387;-74
2021/11/06 02:48:14;;;;;;;4.43;0.97;;;10.50;64.80;;;;;;5112414;28;20035;-75
2021/11/06 02:50:40;;;;;;;2.25;1.02;;;10.50;64.70;;;;;;5111339;28;20425;-74
2021/11/06 02:53:06;;;;;;;1.70;1.30;;;10.40;64.50;;;;;;5110051;28;20039;-74
2021/11/06 02:55:33;;;;;;;3.65;0.80;;;10.40;64.80;;;;;;5111769;28;20075;-73
2021/11/06 02:57:58;;;;;;;6.60;1.73;;;10.40;64.90;;;;;;5112143;28;20080;-74
2021/11/06 03:00:27;;;;;;;1.60;0.85;;;10.40;65.00;;;;;;5112078;28;20024;-74
2021/11/06 03:02:54;;;;;;;1.80;0.95;;;10.30;64.70;;;;;;5112129;28;20031;-74
2021/11/06 03:05:20;;;;;;;2.15;0.93;;;10.30;64.70;;;;;;5111288;28;20439;-73
2021/11/06 03:07:46;;;;;;;2.33;1.00;;;10.30;65.40;;;;;;5111801;28;20589;-73
2021/11/06 03:10:14;;;;;;;2.23;1.00;;;10.30;64.60;;;;;;5111829;28;20049;-73
2021/11/06 03:12:40;;;;;;;4.25;1.10;;;10.20;64.60;;;;;;5112354;28;20455;-74
2021/11/06 03:15:06;;;;;;;2.28;1.08;;;10.30;64.70;;;;;;5112104;28;20092;-73
2021/11/06 03:17:32;;;;;;;1.40;0.95;;;10.30;64.90;;;;;;5112012;28;20085;-72
2021/11/06 03:19:58;;;;;;;5.53;1.10;;;10.30;65.40;;;;;;5112261;28;20047;-74
2021/11/06 03:22:24;;;;;;;2.13;1.10;;;10.20;65.10;;;;;;5112142;28;20035;-74
2021/11/06 03:24:49;;;;;;;5.47;1.00;;;10.30;64.90;;;;;;5112169;28;20035;-73
2021/11/06 03:27:15;;;;;;;2.40;1.17;;;10.20;65.10;;;;;;5111946;28;20024;-74
2021/11/06 03:29:41;;;;;;;4.77;1.13;;;10.20;65.80;;;;;;5111750;28;20024;-74
2021/11/06 03:32:08;;;;;;;2.03;1.20;;;10.20;66.10;;;;;;5112497;28;20059;-73
2021/11/06 03:34:33;;;;;;;3.35;0.80;;;10.20;65.00;;;;;;5112098;28;20123;-74
2021/11/06 03:36:59;;;;;;;2.33;1.02;;;10.20;64.30;;;;;;5111822;28;20534;-71
2021/11/06 03:39:25;;;;;;;3.85;1.30;;;10.20;65.30;;;;;;5111814;28;20475;-75
2021/11/06 03:41:51;;;;;;;1.80;1.10;;;10.10;65.60;;;;;;5112250;28;20034;-73
2021/11/06 03:44:16;;;;;;;1.57;1.00;;;10.10;65.20;;;;;;5112016;28;20046;-74
2021/11/06 03:46:44;;;;;;;2.97;1.27;;;10.00;64.60;;;;;;5112529;28;20028;-71
2021/11/06 03:49:10;;;;;;;2.53;1.10;;;10.00;65.00;;;;;;5110434;28;20072;-74
2021/11/06 03:51:35;;;;;;;2.23;1.13;;;10.00;64.90;;;;;;5111672;28;20024;-74
2021/11/06 03:54:01;;;;;;;2.13;1.13;;;10.00;64.90;;;;;;5110858;28;20492;-75
2021/11/06 03:56:27;;;;;;;3.00;1.50;;;10.00;65.10;;;;;;5112099;28;20065;-75
2021/11/06 03:58:53;;;;;;;2.80;1.02;;;10.00;65.30;;;;;;5111867;28;20371;-74
2021/11/06 04:01:19;;;;;;;6.20;1.10;;;10.00;64.70;;;;;;5111655;28;20122;-74
2021/11/06 04:03:45;;;;;;;1.90;1.07;;;9.90;64.80;;;;;;5111829;28;20063;-72
2021/11/06 04:06:13;;;;;;;1.77;1.10;;;9.90;65.20;;;;;;5110432;28;20353;-74
2021/11/06 04:08:38;;;;;;;1.67;1.13;;;9.90;65.50;;;;;;5111889;28;20055;-74
2021/11/06 04:11:04;;;;;;;1.40;1.00;;;9.90;65.60;;;;;;5111563;28;20476;-74
2021/11/06 04:13:30;;;;;;;1.60;0.93;;;9.90;65.70;;;;;;5111759;28;20032;-74
2021/11/06 04:15:55;;;;;;;2.37;1.20;;;9.90;66.70;;;;;;5112140;28;20019;-74
2021/11/06 04:18:21;;;;;;;3.83;1.10;;;10.00;66.90;;;;;;5112707;28;20087;-74
2021/11/06 04:20:47;;;;;;;2.57;1.10;;;9.90;65.50;;;;;;5112853;28;20020;-74
2021/11/06 04:23:13;;;;;;;2.77;1.33;;;9.90;65.90;;;;;;5112893;28;20058;-74
2021/11/06 04:25:39;;;;;;;4.30;1.20;;;9.90;66.70;;;;;;5114337;28;20548;-73
2021/11/06 04:28:04;;;;;;;2.05;1.20;;;9.90;67.00;;;;;;5116424;28;20396;-74
2021/11/06 04:30:30;;;;;;;1.77;1.13;;;9.90;66.40;;;;;;5116418;28;20483;-75
2021/11/06 04:32:56;;;;;;;2.05;1.02;;;10.00;66.90;;;;;;5116304;28;20383;-74
2021/11/06 04:35:22;;;;;;;3.67;1.10;;;9.90;66.60;;;;;;5116591;28;20032;-74
2021/11/06 04:37:48;;;;;;;3.33;1.40;;;10.00;65.70;;;;;;5116532;28;20024;-74
2021/11/06 04:40:13;;;;;;;3.73;0.93;;;9.90;65.90;;;;;;5116624;28;20491;-73
2021/11/06 04:42:40;;;;;;;1.50;1.20;;;10.00;66.30;;;;;;5116389;28;20020;-74
2021/11/06 04:45:07;;;;;;;2.73;0.90;;;9.90;65.70;;;;;;5116130;28;20030;-74
2021/11/06 04:47:33;;;;;;;1.50;1.00;;;9.90;65.90;;;;;;5116075;28;20467;-74
2021/11/06 04:49:59;;;;;;;2.07;1.10;;;9.90;65.70;;;;;;5116251;28;20027;-74
2021/11/06 04:52:26;;;;;;;3.47;1.10;;;9.90;66.00;;;;;;5116118;28;20035;-75
2021/11/06 04:54:53;;;;;;;1.60;0.95;;;9.90;66.00;;;;;;5115056;28;20443;-73
2021/11/06 04:57:19;;;;;;;3.77;1.20;;;9.80;65.50;;;;;;5116078;28;20095;-74
2021/11/06 04:59:44;;;;;;;1.77;1.07;;;9.80;66.10;;;;;;5115709;28;20099;-74
2021/11/06 05:02:10;;;;;;;3.87;1.10;;;9.80;66.00;;;;;;5116156;27;20076;-74
2021/11/06 05:04:37;;;;;;;2.73;1.10;;;9.80;66.10;;;;;;5115843;27;20027;-73
2021/11/06 05:07:06;;;;;;;3.57;1.13;;;9.80;66.50;;;;;;5115766;28;20077;-74
2021/11/06 05:09:33;;;;;;;2.10;1.00;;;9.80;66.10;;;;;;5115782;28;20065;-74
2021/11/06 05:11:59;;;;;;;3.50;1.10;;;9.80;66.60;;;;;;5115894;28;20114;-74
2021/11/06 05:14:24;;;;;;;2.17;1.17;;;9.80;66.80;;;;;;5115704;28;20107;-74
2021/11/06 05:16:50;;;;;;;4.03;1.20;;;9.80;66.70;;;;;;5115291;28;20035;-74
2021/11/06 05:19:17;;;;;;;2.17;1.00;;;9.80;67.00;;;;;;5115561;28;20024;-74
2021/11/06 05:21:44;;;;;;;2.60;1.30;;;9.80;67.00;;;;;;5114068;28;20391;-74
2021/11/06 05:24:10;;;;;;;1.50;1.00;;;9.80;66.70;;;;;;5115447;28;20031;-74
2021/11/06 05:26:39;;;;;;;5.77;1.33;;;9.80;66.70;;;;;;5115334;28;20058;-74
2021/11/06 05:29:09;;;;;;;1.53;1.13;;;9.80;66.80;;;;;;5115441;28;20058;-74
2021/11/06 05:31:36;;;;;;;2.47;1.30;;;9.80;67.00;;;;;;5115617;28;20030;-74
2021/11/06 05:34:03;;;;;;;3.13;1.10;;;9.70;66.80;;;;;;5115593;28;20038;-74
2021/11/06 05:36:28;;;;;;;8.53;1.17;;;9.70;67.40;;;;;;5115723;28;20047;-74
2021/11/06 05:38:55;;;;;;;2.67;1.43;;;9.60;67.20;;;;;;5115062;28;20096;-74
2021/11/06 05:41:21;;;;;;;4.03;1.60;;;9.60;67.10;;;;;;5114878;28;20027;-74
2021/11/06 05:43:47;;;;;;;2.20;1.23;;;9.50;67.10;;;;;;5115169;27;20020;-75
2021/11/06 05:46:13;;;;;;;1.57;1.00;;;9.60;67.40;;;;;;5115052;28;20027;-74
2021/11/06 05:48:39;;;;;;;2.97;1.40;;;9.60;67.30;;;;;;5114818;28;20481;-74
2021/11/06 05:51:05;;;;;;;1.63;1.00;;;9.60;67.00;;;;;;5114452;28;20059;-74
2021/11/06 05:53:31;;;;;;;2.47;1.23;;;9.70;66.80;;;;;;5114855;28;20032;-74
2021/11/06 05:55:56;;;;;;;1.33;1.00;;;9.70;66.90;;;;;;5114841;27;20035;-72
2021/11/06 05:58:22;;;;;;;2.17;1.03;;;9.70;67.10;;;;;;5114679;28;20032;-74
2021/11/06 06:00:48;;;;;;;2.53;1.27;;;9.70;67.20;;;;;;5114668;28;20102;-74
2021/11/06 06:03:14;;;;;;;2.30;1.03;;;9.70;67.60;;;;;;5114567;28;20573;-74
2021/11/06 06:05:40;;;;;;;2.43;1.20;;;9.60;67.70;;;;;;5114755;28;20369;-74
2021/11/06 06:08:07;;;;;;;2.60;1.40;;;9.60;67.90;;;;;;5114637;28;20092;-74
2021/11/06 06:10:33;;;;;;;2.80;1.40;;;9.60;68.00;;;;;;5114229;28;20468;-72
2021/11/06 06:12:58;;;;;;;2.57;1.27;;;9.70;67.90;;;;;;5113779;28;20076;-73
2021/11/06 06:15:24;;;;;;;4.10;1.50;;;9.70;67.90;;;;;;5113642;28;20027;-72
2021/11/06 06:17:51;;;;;;;2.57;1.30;;;9.70;68.10;;;;;;5113984;28;20051;-74
2021/11/06 06:20:18;;;;;;;2.60;1.50;;;9.70;68.10;;;;;;5114203;28;20484;-72
2021/11/06 06:22:45;;;;;;;5.73;2.30;;;9.70;67.90;;;;;;5114304;28;20027;-74
2021/11/06 06:25:12;;;;;;;6.83;2.17;;;9.70;68.00;;;;;;5113898;28;20115;-74
2021/11/06 06:27:39;;;;;;;4.90;1.90;;;9.70;67.90;;;;;;5114250;28;20099;-74
2021/11/06 06:30:07;;;;;;;3.93;2.13;;;9.70;67.90;;;;;;5114043;28;20065;-71
2021/11/06 06:32:33;;;;;;;3.43;1.80;;;9.80;67.90;;;;;;5112935;28;20024;-73
2021/11/06 06:34:59;;;;;;;3.90;2.00;;;9.80;67.90;;;;;;5113616;27;20106;-73
2021/11/06 06:37:25;;;;;;;3.97;2.20;;;9.80;68.10;;;;;;5113818;28;20023;-74
2021/11/06 06:39:51;;;;;;;6.07;1.93;;;9.90;68.20;;;;;;5113819;27;20383;-71
2021/11/06 06:42:17;;;;;;;7.83;1.93;;;9.90;68.00;;;;;;5113526;28;20016;-73
2021/11/06 06:44:44;;;;;;;2.77;2.00;;;9.90;67.30;;;;;;5114005;28;20114;-73
2021/11/06 06:47:12;;;;;;;4.07;2.00;;;9.90;67.10;;;;;;5112499;28;20095;-74
2021/11/06 06:49:38;;;;;;;4.27;2.23;;;9.90;67.50;;;;;;5113204;28;20035;-73
2021/11/06 06:52:04;;;;;;;9.77;3.23;;;10.00;67.40;;;;;;5112494;28;20020;-73
2021/11/06 06:54:30;;;;;;;2.57;1.90;;;10.10;67.30;;;;;;5112554;28;20031;-73
2021/11/06 06:56:55;;;;;;;13.00;8.32;;;10.20;67.20;;;;;;5113560;28;20391;-74
2021/11/06 06:59:21;;;;;;;36.70;23.35;;;10.20;67.40;;;;;;5112146;28;20298;-72
2021/11/06 07:01:47;;;;;;;7.57;3.97;;;10.30;67.90;;;;;;5111989;28;20073;-73
2021/11/06 07:04:13;;;;;;;2.70;2.00;;;10.30;67.90;;;;;;5112024;28;20360;-74
2021/11/06 07:06:39;;;;;;;3.73;2.13;;;10.30;67.70;;;;;;5111584;28;20427;-73
2021/11/06 07:09:05;;;;;;;5.00;2.40;;;10.30;67.20;;;;;;5113233;28;20027;-73
2021/11/06 07:11:31;;;;;;;2.88;1.73;;;10.40;67.50;;;;;;5111992;28;20055;-71
2021/11/06 07:13:57;;;;;;;4.43;1.90;;;10.40;67.60;;;;;;5113651;28;20439;-72
2021/11/06 07:16:23;;;;;;;3.60;1.80;;;10.50;68.00;;;;;;5113506;28;20494;-72
2021/11/06 07:18:49;;;;;;;3.60;1.90;;;10.50;67.50;;;;;;5113340;28;20377;-73
2021/11/06 07:21:14;;;;;;;3.20;1.85;;;10.60;67.30;;;;;;5112880;28;20456;-74
2021/11/06 07:23:40;;;;;;;5.00;1.90;;;10.60;66.90;;;;;;5111833;28;20153;-71
2021/11/06 07:26:06;;;;;;;3.60;1.80;;;;;;;;;;5112624;28;20024;-72
2021/11/06 07:28:32;;;;;;;3.95;1.83;;;10.70;66.20;;;;;;5112370;28;20377;-72
2021/11/06 07:30:59;;;;;;;3.25;2.00;;;10.80;66.60;;;;;;5112757;28;20030;-72
2021/11/06 07:33:24;;;;;;;2.58;1.77;;;10.90;66.40;;;;;;5113000;28;20121;-71
2021/11/06 07:35:50;;;;;;;3.35;1.67;;;;;;;;;;5112752;28;20028;-74
2021/11/06 07:38:16;;;;;;;2.47;1.70;;;;;;;;;;5112703;28;20513;-73
2021/11/06 07:40:43;;;;;;;2.60;2.10;;;;;;;;;;5113065;28;20032;-72
2021/11/06 07:43:09;;;;;;;4.70;2.00;;;;;;;;;;5112633;28;20027;-73
2021/11/06 07:45:35;;;;;;;7.82;2.05;;;;;;;;;;5112825;28;20069;-70
2021/11/06 07:48:01;;;;;;;4.68;2.08;;;;;;;;;;5112884;28;20039;-73
2021/11/06 07:50:28;;;;;;;3.58;2.08;;;11.30;64.60;;;;;;5105999;28;20024;-70
2021/11/06 07:52:54;;;;;;;3.53;2.17;;;11.50;63.70;;;;;;5095446;28;20029;-69
2021/11/06 07:55:20;;;;;;;5.63;2.83;;;;;;;;;;5092030;28;20028;-70
2021/11/06 07:57:46;;;;;;;3.28;2.13;;;11.70;61.50;;;;;;5092327;28;20032;-71
2021/11/06 08:00:14;;;;;;;5.63;2.00;;;;;;;;;;5092838;28;20024;-73
2021/11/06 08:02:41;;;;;;;3.45;1.90;;;11.90;60.80;;;;;;5096163;28;20028;-72
2021/11/06 08:05:10;;;;;;;6.82;2.00;;;11.90;61.00;;;;;;5096051;28;20024;-72
2021/11/06 08:07:36;;;;;;;2.95;1.90;;;12.00;60.40;;;;;;5095843;28;20051;-74
2021/11/06 08:10:03;;;;;;;3.55;2.10;;;12.10;60.40;;;;;;5094431;28;20477;-74
2021/11/06 08:12:30;;;;;;;2.13;1.73;;;;;;;;;;5107128;28;20024;-73
2021/11/06 08:14:56;;;;;;;5.57;1.60;;;12.40;71.80;;;;;;5116832;28;20031;-72
2021/11/06 08:17:21;;;;;;;2.90;1.98;;;12.50;60.30;;;;;;5116256;28;20492;-74
2021/11/06 08:19:47;;;;;;;3.55;2.00;;;12.40;57.10;;;;;;5115747;28;20053;-72
2021/11/06 08:22:13;;;;;;;2.50;1.63;;;12.40;57.60;;;;;;5116192;28;20061;-73
2021/11/06 08:24:40;;;;;;;2.92;1.55;;;12.50;57.60;;;;;;5116054;28;20028;-73
2021/11/06 08:27:06;;;;;;;2.72;1.67;;;12.50;56.80;;;;;;5116106;28;20028;-72
2021/11/06 08:29:32;;;;;;;3.22;1.50;;;12.50;56.90;;;;;;5116145;28;20039;-73
2021/11/06 08:31:59;;;;;;;2.35;1.40;;;12.60;56.40;;;;;;5114761;28;20029;-74
2021/11/06 08:34:25;;;;;;;2.42;1.30;;;12.60;56.20;;;;;;5116109;28;20024;-71
2021/11/06 08:36:52;;;;;;;1.60;1.30;;;12.70;55.80;;;;;;5115781;28;20048;-70
2021/11/06 08:39:19;;;;;;;1.92;1.40;;;12.70;55.40;;;;;;5115781;28;20028;-70
2021/11/06 08:41:46;;;;;;;1.73;1.30;;;12.70;55.20;;;;;;5116223;28;20035;-70
2021/11/06 08:44:14;;;;;;;6.57;1.40;;;12.80;55.00;;;;;;5115823;28;20098;-73
2021/11/06 08:46:41;;;;;;;1.88;1.50;;;12.90;55.20;;;;;;5115771;28;20099;-70
2021/11/06 08:49:08;;;;;;;2.53;1.60;;;12.90;55.50;;;;;;5115640;28;20031;-69
2021/11/06 08:51:34;;;;;;;3.13;1.70;;;13.00;54.90;;;;;;5114444;28;20020;-70
2021/11/06 08:53:59;;;;;;;6.10;1.85;;;13.10;55.70;;;;;;5115222;28;20476;-73
2021/11/06 08:56:28;;;;;;;3.78;2.00;;;13.00;54.90;;;;;;5115048;28;20020;-72
2021/11/06 08:58:54;;;;;;;10.57;1.88;;;13.10;54.90;;;;;;5115333;28;20027;-72
2021/11/06 09:01:20;;;;;;;3.65;2.10;;;13.10;54.90;;;;;;5115642;28;20016;-73
2021/11/06 09:03:46;;;;;;;2.63;1.63;;;13.20;54.40;;;;;;5115755;28;20016;-73
2021/11/06 09:06:12;;;;;;;3.15;1.85;;;13.20;54.10;;;;;;5112881;28;20098;-73
2021/11/06 09:08:42;;;;;;;5.68;1.55;;;13.20;53.50;;;;;;5112206;28;20396;-71
2021/11/06 09:11:10;;;;;;;4.05;1.58;;;13.30;54.20;;;;;;5112312;28;20054;-71
2021/11/06 09:13:36;;;;;;;2.38;1.40;;;13.30;53.50;;;;;;5111934;28;20023;-72
2021/11/06 09:16:04;;;;;;;2.13;1.50;;;13.40;53.30;;;;;;5114935;28;20363;-70
2021/11/06 09:18:30;;;;;;;2.72;1.38;;;13.40;53.90;;;;;;5114889;28;20124;-69
2021/11/06 09:20:56;;;;;;;1.75;1.23;;;;;;;;;;5113986;28;20031;-69
2021/11/06 09:23:22;;;;;;;3.83;1.50;;;13.60;58.70;;;;;;5111596;28;20032;-70
2021/11/06 09:25:48;;;;;;;3.78;1.45;;;13.50;53.40;;;;;;5112635;28;20349;-69
2021/11/06 09:28:14;;;;;;;2.15;1.50;;;13.60;53.30;;;;;;5115132;28;20034;-69
2021/11/06 09:30:39;;;;;;;1.83;1.20;;;13.70;53.10;;;;;;5115315;28;20379;-69
2021/11/06 09:33:05;;;;;;;1.90;1.23;;;;;;;;;;5114336;28;20102;-70
2021/11/06 09:35:31;;;;;;;3.60;1.10;;;13.70;51.60;;;;;;5114674;28;20020;-69
2021/11/06 09:37:58;;;;;;;4.65;1.33;;;13.80;53.00;;;;;;5127597;27;20113;-69
2021/11/06 09:40:24;;;;;;;2.47;1.27;;;13.80;51.50;;;;;;5122758;27;20024;-69
2021/11/06 09:42:50;;;;;;;5.88;1.35;;;13.90;51.50;;;;;;5113682;28;20073;-69
2021/11/06 09:45:16;;;;;;;2.60;1.23;;;13.90;51.00;;;;;;5114281;28;20035;-70
2021/11/06 09:47:45;;;;;;;1.67;1.40;;;13.90;50.70;;;;;;5113874;28;20028;-70
2021/11/06 09:50:16;;;;;;;6.32;1.65;;;14.00;51.60;;;;;;5113930;28;20038;-70
2021/11/06 09:52:43;;;;;;;2.13;1.50;;;14.00;51.90;;;;;;5113575;28;20024;-70
2021/11/06 09:55:09;;;;;;;1.90;1.20;;;14.10;51.70;;;;;;5113798;28;20024;-70
2021/11/06 09:57:35;;;;;;;1.88;1.20;;;14.10;51.40;;;;;;5115011;28;20035;-70
2021/11/06 10:00:03;;;;;;;2.40;1.50;;;14.20;51.60;;;;;;5114681;28;20411;-71
2021/11/06 10:02:29;;;;;;;1.95;1.20;;;;;;;;;;5114743;28;20028;-70
2021/11/06 10:04:54;;;;;;;2.13;1.17;;;14.20;54.50;;;;;;5114392;28;20039;-69
2021/11/06 10:07:24;;;;;;;1.88;1.20;;;14.30;51.70;;;;;;5114722;28;20057;-70
2021/11/06 10:10:04;;;;;;;2.50;1.30;;;14.30;52.00;;;;;;5113187;28;20131;-70
2021/11/06 10:12:47;;;;;;;4.45;1.98;;;14.40;51.40;;;;;;5114279;28;20380;-70
2021/11/06 10:15:14;;;;;;;1.67;1.38;;;14.40;51.50;;;;;;5114768;28;20038;-71
2021/11/06 10:17:39;;;;;;;4.38;1.45;;;14.60;51.40;;;;;;5113953;28;20050;-70
2021/11/06 10:20:29;;;;;;;1.35;0.95;;;14.60;50.20;;;;;;5114216;28;20028;-70
2021/11/06 10:23:01;;;;;;;1.52;1.27;;;14.70;52.30;;;;;;5113583;28;20611;-71
2021/11/06 10:25:28;;;;;;;2.58;1.38;;;14.80;52.80;;;;;;5114348;28;20070;-69
2021/11/06 10:28:00;;;;;;;2.47;1.10;;;14.80;50.00;;;;;;5114207;28;20476;-71
2021/11/06 10:30:29;;;;;;;2.17;1.20;;;14.80;50.50;;;;;;5114312;28;20394;-71
2021/11/06 10:33:05;;;;;;;2.10;1.25;;;14.90;50.00;;;;;;5114093;28;20028;-70
2021/11/06 10:35:36;;;;;;;3.72;1.30;;;15.00;57.50;;;;;;5113692;28;20096;-70
2021/11/06 10:38:16;;;;;;;2.55;1.15;;;15.00;49.10;;;;;;5113762;28;20036;-70
2021/11/06 10:40:50;;;;;;;4.22;1.40;;;15.00;49.40;;;;;;5114030;28;20012;-69
2021/11/06 10:43:18;;;;;;;1.90;1.23;;;15.00;48.30;;;;;;5113721;28;20028;-71
2021/11/06 10:45:50;;;;;;;1.67;1.10;;;15.00;48.00;;;;;;5113965;28;20597;-70
2021/11/06 10:48:24;;;;;;;1.25;1.02;;;15.00;49.10;;;;;;5113747;28;20047;-71
2021/11/06 10:51:02;;;;;;;3.55;1.08;;;15.10;50.50;;;;;;5114225;28;20027;-70
2021/11/06 10:53:30;;;;;;;2.58;1.30;;;15.10;50.30;;;;;;5113881;28;20100;-71
2021/11/06 10:55:57;;;;;;;1.45;0.90;;;15.10;49.40;;;;;;5113552;28;20020;-71
2021/11/06 10:58:28;;;;;;;1.20;1.02;;;15.20;48.80;;;;;;5113669;28;20027;-71
2021/11/06 11:01:04;;;;;;;2.03;1.20;;;15.40;50.60;;;;;;5113623;28;20398;-71
2021/11/06 11:03:33;;;;;;;2.65;1.30;;;15.50;57.40;;;;;;5113720;28;20026;-71
2021/11/06 11:06:01;;;;;;;2.13;1.17;;;;;;;;;;5112452;28;20024;-71
2021/11/06 11:08:30;;;;;;;2.85;1.25;;;15.50;48.40;;;;;;5111941;28;20472;-71
2021/11/06 11:11:06;;;;;;;2.42;1.33;;;15.60;49.50;;;;;;5112477;28;20032;-71
2021/11/06 11:13:32;;;;;;;2.75;1.55;;;;;;;;;;5113584;28;20050;-71
2021/11/06 11:16:11;;;;;;;4.30;1.40;;;15.80;48.90;;;;;;5113359;28;20015;-71
2021/11/06 11:18:39;;;;;;;3.53;1.17;;;15.90;49.50;;;;;;5113509;28;20040;-71
2021/11/06 11:21:21;;;;;;;4.22;1.70;;;15.90;49.30;;;;;;5112579;28;20035;-71
2021/11/06 11:23:50;;;;;;;1.95;1.30;;;16.00;48.70;;;;;;5112823;28;20047;-70
2021/11/06 11:26:18;;;;;;;1.75;1.10;;;16.10;48.80;;;;;;5113267;28;20027;-70
2021/11/06 11:28:46;;;;;;;2.00;1.48;;;16.10;48.50;;;;;;5113397;27;20024;-70
2021/11/06 11:31:12;;;;;;;4.30;1.20;;;16.20;48.70;;;;;;5113213;28;20480;-70
2021/11/06 11:33:39;;;;;;;2.08;1.30;;;;;;;;;;5113063;28;20028;-71
2021/11/06 11:36:06;;;;;;;2.67;1.20;;;16.30;47.20;;;;;;5117336;28;20028;-71
2021/11/06 11:38:33;;;;;;;3.25;1.20;;;16.40;47.50;;;;;;5117312;28;20081;-70
2021/11/06 11:41:41;;;;;;;5.72;1.30;;;16.40;48.00;;;;;;5117269;28;20016;-71
2021/11/06 11:44:25;;;;;;;2.72;1.45;;;16.50;47.60;;;;;;5117382;28;20024;-70
2021/11/06 11:47:15;;;;;;;1.73;1.17;;;16.40;46.10;;;;;;5116433;28;20020;-70
2021/11/06 11:49:44;;;;;;;3.65;1.33;;;16.40;46.40;;;;;;5115951;28;20040;-70
2021/11/06 11:52:34;;;;;;;2.67;1.38;;;16.40;46.70;;;;;;5116900;28;20027;-70
2021/11/06 11:55:05;;;;;;;4.82;1.48;;;16.40;47.10;;;;;;5117422;28;20050;-70
2021/11/06 11:57:33;;;;;;;1.85;1.40;;;16.50;46.80;;;;;;5116728;28;20026;-71
2021/11/06 11:59:59;;;;;;;7.60;1.25;;;16.50;45.60;;;;;;5116613;28;20090;-71
2021/11/06 12:02:29;;;;;;;2.97;1.55;;;16.40;46.80;;;;;;5116768;28;20020;-71
2021/11/06 12:05:18;;;;;;;4.22;1.55;;;16.30;46.30;;;;;;5116977;28;20024;-71
2021/11/06 12:08:07;;;;;;;2.05;1.50;;;16.30;47.70;;;;;;5116695;28;20043;-71
2021/11/06 12:10:35;;;;;;;2.05;1.35;;;16.30;46.70;;;;;;5116575;28;20062;-71
2021/11/06 12:13:26;;;;;;;4.82;1.50;;;16.30;46.60;;;;;;5116809;28;20027;-71
2021/11/06 12:16:13;;;;;;;3.05;1.42;;;16.40;46.80;;;;;;5116355;28;20484;-71
2021/11/06 12:18:47;;;;;;;3.47;1.30;;;16.40;46.70;;;;;;5115952;28;20054;-71
2021/11/06 12:21:32;;;;;;;2.63;1.35;;;16.40;46.80;;;;;;5116532;28;20027;-72
2021/11/06 12:24:00;;;;;;;4.85;1.38;;;16.50;46.70;;;;;;5116822;28;20028;-71
2021/11/06 12:26:31;;;;;;;4.05;1.27;;;16.50;46.30;;;;;;5116571;28;20027;-71
2021/11/06 12:29:03;;;;;;;5.88;1.55;;;16.50;46.40;;;;;;5115799;28;20539;-71
2021/11/06 12:31:37;;;;;;;3.80;1.70;;;16.60;46.40;;;;;;5116462;28;20028;-70
2021/11/06 12:34:03;;;;;;;4.72;1.45;;;16.60;45.70;;;;;;5115138;28;20096;-69
2021/11/06 12:36:31;;;;;;;3.05;1.67;;;16.60;45.70;;;;;;5116602;28;20558;-70
2021/11/06 12:39:02;;;;;;;3.25;1.33;;;16.50;45.80;;;;;;5114236;28;20039;-70
2021/11/06 12:41:32;;;;;;;2.35;1.27;;;16.50;45.70;;;;;;5113321;28;20499;-72
2021/11/06 12:43:59;;;;;;;2.47;1.45;;;16.50;45.90;;;;;;5113261;28;20042;-71
2021/11/06 12:46:29;;;;;;;5.65;1.67;;;16.50;45.00;;;;;;5114930;28;20046;-71
2021/11/06 12:48:58;;;;;;;2.00;1.40;;;16.40;45.50;;;;;;5115648;28;20042;-71
2021/11/06 12:51:43;;;;;;;2.35;1.60;;;16.40;45.70;;;;;;5115808;28;20460;-71
2021/11/06 12:54:11;;;;;;;3.03;1.73;;;16.40;46.10;;;;;;5115632;28;20020;-72